Time;durP1;ratioP1;P1;durP2;ratioP2;P2;SDS_P1;SDS_P2;PMS_P1;PMS_P2;Temp;Humidity;BMP_temperature;BMP_pressure;BME280_temperature;BME280_humidity;BME280_pressure;Samples;Min_cycle;Max_cycle;Signal;HPM_P1;HPM_P2
2024/01/02 00:01:42;;;;;;;2.10;1.50;;;18.20;60.10;;;;;;5094885;28;20244;-72
2024/01/02 00:04:08;;;;;;;2.35;1.63;;;18.20;60.10;;;;;;5105528;28;20223;-72
2024/01/02 00:06:34;;;;;;;1.67;1.40;;;18.20;60.10;;;;;;5094417;28;20229;-72
2024/01/02 00:08:59;;;;;;;2.40;1.50;;;18.20;60.10;;;;;;5096792;28;20173;-71
2024/01/02 00:11:25;;;;;;;2.05;1.40;;;18.20;60.00;;;;;;5092278;28;20185;-72
2024/01/02 00:13:51;;;;;;;1.92;1.35;;;18.20;60.10;;;;;;5095660;28;20707;-72
2024/01/02 00:16:17;;;;;;;2.17;1.70;;;18.20;60.10;;;;;;5092074;28;20189;-73
2024/01/02 00:18:43;;;;;;;3.33;1.60;;;18.20;60.10;;;;;;5095441;28;20184;-72
2024/01/02 00:21:08;;;;;;;2.42;1.40;;;18.20;60.10;;;;;;5095690;28;20191;-72
2024/01/02 00:23:34;;;;;;;1.80;1.55;;;18.20;60.10;;;;;;5077121;28;20216;-72
2024/01/02 00:26:00;;;;;;;2.40;1.40;;;18.20;60.10;;;;;;5095387;28;20192;-71
2024/01/02 00:28:26;;;;;;;1.63;1.20;;;18.20;60.10;;;;;;5089554;28;20217;-72
2024/01/02 00:30:52;;;;;;;2.83;1.70;;;18.20;60.10;;;;;;5082200;28;20664;-72
2024/01/02 00:33:18;;;;;;;1.95;1.33;;;18.20;60.10;;;;;;5086935;28;20208;-72
2024/01/02 00:35:43;;;;;;;2.50;1.52;;;18.20;60.10;;;;;;5093846;28;20212;-71
2024/01/02 00:38:09;;;;;;;1.65;1.45;;;18.20;60.10;;;;;;5092117;28;20209;-71
2024/01/02 00:40:36;;;;;;;1.40;1.30;;;18.20;60.10;;;;;;5085791;28;20582;-72
2024/01/02 00:43:02;;;;;;;1.77;1.42;;;18.20;60.00;;;;;;5105636;28;20216;-71
2024/01/02 00:45:28;;;;;;;1.98;1.48;;;18.20;60.00;;;;;;5093829;28;20272;-72
2024/01/02 00:47:54;;;;;;;2.22;1.58;;;18.20;59.90;;;;;;5109232;28;20213;-72
2024/01/02 00:50:21;;;;;;;2.53;1.63;;;18.20;60.00;;;;;;5102159;28;20231;-72
2024/01/02 00:52:47;;;;;;;2.17;1.30;;;18.20;60.00;;;;;;5092593;28;20258;-72
2024/01/02 00:55:13;;;;;;;1.77;1.40;;;18.20;60.10;;;;;;5097305;28;20183;-71
2024/01/02 00:57:39;;;;;;;2.53;1.40;;;18.20;60.10;;;;;;5080412;28;20192;-72
2024/01/02 01:00:06;;;;;;;2.35;1.50;;;18.20;60.00;;;;;;5080014;28;20216;-71
2024/01/02 01:02:32;;;;;;;2.53;1.40;;;18.20;60.10;;;;;;5072636;28;20209;-72
2024/01/02 01:04:58;;;;;;;1.38;1.00;;;18.20;60.00;;;;;;5076760;28;20238;-71
2024/01/02 01:07:23;;;;;;;1.98;1.40;;;18.20;60.00;;;;;;5109118;28;20226;-72
2024/01/02 01:09:49;;;;;;;1.27;1.17;;;18.20;60.10;;;;;;5076276;28;20177;-72
2024/01/02 01:12:15;;;;;;;1.50;1.40;;;18.20;60.00;;;;;;5109698;28;20181;-72
2024/01/02 01:14:41;;;;;;;1.70;1.30;;;18.20;60.00;;;;;;5109643;28;20253;-71
2024/01/02 01:17:07;;;;;;;2.15;1.60;;;18.20;60.00;;;;;;5093115;28;20220;-70
2024/01/02 01:19:35;;;;;;;1.30;1.15;;;18.20;60.10;;;;;;5103255;28;20235;-70
2024/01/02 01:22:00;;;;;;;1.40;1.30;;;18.20;60.00;;;;;;5092631;28;20181;-71
2024/01/02 01:24:26;;;;;;;2.17;1.33;;;18.20;60.00;;;;;;5094471;28;20743;-71
2024/01/02 01:26:52;;;;;;;2.20;1.40;;;18.20;60.00;;;;;;5085368;28;20365;-72
2024/01/02 01:29:25;;;;;;;1.77;1.25;;;18.20;60.00;;;;;;5089542;28;20603;-72
2024/01/02 01:31:51;;;;;;;1.30;1.17;;;18.20;60.00;;;;;;5085010;28;20181;-71
2024/01/02 01:34:17;;;;;;;1.63;1.30;;;18.20;60.00;;;;;;5072626;28;20201;-71
2024/01/02 01:36:43;;;;;;;1.92;1.25;;;18.20;60.00;;;;;;5075866;28;20260;-71
2024/01/02 01:39:09;;;;;;;1.55;1.10;;;18.20;59.90;;;;;;5084680;28;20192;-71
2024/01/02 01:41:35;;;;;;;2.05;1.30;;;18.20;59.90;;;;;;5086515;28;20196;-71
2024/01/02 01:44:01;;;;;;;2.05;1.25;;;18.20;59.90;;;;;;5091430;28;20679;-71
2024/01/02 01:46:36;;;;;;;2.08;1.25;;;18.20;59.90;;;;;;5092498;28;20189;-72
2024/01/02 01:49:03;;;;;;;3.22;1.23;;;18.20;59.90;;;;;;5101349;28;20176;-71
2024/01/02 01:51:30;;;;;;;2.10;1.27;;;18.20;59.90;;;;;;5100963;28;20188;-72
2024/01/02 01:53:59;;;;;;;1.88;1.30;;;18.20;59.90;;;;;;5092404;28;20205;-71
2024/01/02 01:56:25;;;;;;;2.15;1.30;;;18.20;60.00;;;;;;5083722;28;20188;-71
2024/01/02 01:58:51;;;;;;;1.70;1.27;;;18.20;59.90;;;;;;5092750;28;20267;-72
2024/01/02 02:01:17;;;;;;;1.52;1.10;;;18.20;60.00;;;;;;5092114;28;20191;-72
2024/01/02 02:03:44;;;;;;;1.30;1.20;;;18.20;60.00;;;;;;5092344;28;20267;-72
2024/01/02 02:06:10;;;;;;;2.53;1.08;;;18.20;60.00;;;;;;5075430;28;20192;-72
2024/01/02 02:08:36;;;;;;;1.48;1.38;;;18.20;60.00;;;;;;5076136;28;20216;-72
2024/01/02 02:11:03;;;;;;;1.58;1.40;;;18.20;60.00;;;;;;5082018;28;20644;-70
2024/01/02 02:13:29;;;;;;;1.48;1.15;;;18.20;59.90;;;;;;5083046;28;20262;-69
2024/01/02 02:15:54;;;;;;;1.85;1.30;;;18.20;60.80;;;;;;5070956;28;20188;-69
2024/01/02 02:18:20;;;;;;;1.30;1.20;;;18.20;59.90;;;;;;5079530;28;20191;-69
2024/01/02 02:20:46;;;;;;;1.73;1.25;;;18.20;60.00;;;;;;5089313;28;20186;-69
2024/01/02 02:23:11;;;;;;;1.10;1.00;;;18.20;60.00;;;;;;5080393;28;20671;-71
2024/01/02 02:25:38;;;;;;;2.17;1.10;;;18.20;59.90;;;;;;5092923;28;20203;-69
2024/01/02 02:28:04;;;;;;;1.55;1.20;;;18.20;59.90;;;;;;5096508;28;20238;-70
2024/01/02 02:30:30;;;;;;;1.73;1.30;;;18.20;59.90;;;;;;5077723;28;20181;-70
2024/01/02 02:32:55;;;;;;;1.85;1.40;;;18.20;59.80;;;;;;5099585;28;20261;-70
2024/01/02 02:35:21;;;;;;;1.35;1.10;;;18.20;59.90;;;;;;5074882;28;20198;-69
2024/01/02 02:37:47;;;;;;;1.70;1.25;;;18.20;59.90;;;;;;5099612;28;20192;-70
2024/01/02 02:40:13;;;;;;;1.83;1.63;;;18.20;59.90;;;;;;5088460;28;20262;-70
2024/01/02 02:42:38;;;;;;;1.83;1.33;;;18.20;59.90;;;;;;5084200;28;20212;-70
2024/01/02 02:45:05;;;;;;;1.63;1.23;;;18.20;59.90;;;;;;5088041;28;20191;-69
2024/01/02 02:47:31;;;;;;;1.75;1.20;;;18.20;60.60;;;;;;5094347;28;20208;-70
2024/01/02 02:49:56;;;;;;;2.35;1.27;;;18.20;59.90;;;;;;5111787;28;20224;-70
2024/01/02 02:52:23;;;;;;;2.53;1.40;;;18.20;60.60;;;;;;5105220;28;20219;-70
2024/01/02 02:54:48;;;;;;;1.33;1.10;;;18.20;59.90;;;;;;5091626;28;20769;-70
2024/01/02 02:57:14;;;;;;;1.30;1.10;;;18.20;59.90;;;;;;5091278;28;20189;-70
2024/01/02 02:59:40;;;;;;;1.40;1.30;;;18.20;59.80;;;;;;5074204;28;20191;-70
2024/01/02 03:02:06;;;;;;;2.40;1.40;;;18.20;59.90;;;;;;5072249;28;20549;-70
2024/01/02 03:04:32;;;;;;;1.15;1.00;;;18.20;59.80;;;;;;5089315;28;20270;-70
2024/01/02 03:06:57;;;;;;;1.30;1.10;;;18.20;59.90;;;;;;5090858;28;20205;-70
2024/01/02 03:09:23;;;;;;;1.13;1.00;;;18.20;59.90;;;;;;5074544;28;20234;-71
2024/01/02 03:11:49;;;;;;;1.45;1.30;;;18.20;59.90;;;;;;5091012;28;20250;-70
2024/01/02 03:14:15;;;;;;;1.45;1.30;;;18.20;59.90;;;;;;5074157;28;20220;-70
2024/01/02 03:16:44;;;;;;;1.55;1.02;;;18.20;59.90;;;;;;5074392;28;20233;-70
2024/01/02 03:19:09;;;;;;;1.73;1.00;;;18.20;59.80;;;;;;5074076;28;20197;-70
2024/01/02 03:21:35;;;;;;;1.10;1.00;;;18.20;59.80;;;;;;5074042;28;20199;-70
2024/01/02 03:24:02;;;;;;;1.15;0.98;;;18.20;59.80;;;;;;5092305;28;20217;-70
2024/01/02 03:26:28;;;;;;;1.08;0.98;;;18.20;59.90;;;;;;5066786;28;20185;-70
2024/01/02 03:28:54;;;;;;;1.65;1.15;;;18.20;59.90;;;;;;5073050;28;20561;-68
2024/01/02 03:31:20;;;;;;;0.90;0.90;;;18.20;59.80;;;;;;5087307;28;20672;-70
2024/01/02 03:33:47;;;;;;;1.45;1.02;;;18.20;59.80;;;;;;5088679;28;20273;-69
2024/01/02 03:36:20;;;;;;;1.48;1.20;;;18.20;59.80;;;;;;5073936;28;20196;-70
2024/01/02 03:38:48;;;;;;;2.13;1.50;;;18.20;59.80;;;;;;5090647;28;20196;-70
2024/01/02 03:41:14;;;;;;;2.45;1.20;;;18.20;59.80;;;;;;5073629;28;20224;-70
2024/01/02 03:43:40;;;;;;;1.70;1.10;;;18.20;59.90;;;;;;5073722;28;20251;-72
2024/01/02 03:46:06;;;;;;;1.88;1.25;;;18.20;59.80;;;;;;5090268;28;20196;-70
2024/01/02 03:48:32;;;;;;;1.25;1.15;;;18.20;59.80;;;;;;5073954;28;20263;-69
2024/01/02 03:51:00;;;;;;;1.27;1.10;;;18.20;59.90;;;;;;5082522;28;20204;-71
2024/01/02 03:53:28;;;;;;;1.45;1.20;;;18.20;59.80;;;;;;5092033;28;20213;-69
2024/01/02 03:55:58;;;;;;;1.27;1.10;;;18.20;59.80;;;;;;5089176;28;20188;-70
2024/01/02 03:58:24;;;;;;;1.15;1.05;;;18.20;59.80;;;;;;5088686;28;20230;-70
2024/01/02 04:00:51;;;;;;;1.20;1.10;;;18.20;59.80;;;;;;5091457;28;20193;-69
2024/01/02 04:03:18;;;;;;;1.25;1.10;;;18.20;59.80;;;;;;5090567;28;20197;-70
2024/01/02 04:05:44;;;;;;;1.95;1.20;;;18.20;59.80;;;;;;5090604;28;20188;-70
2024/01/02 04:08:11;;;;;;;1.02;0.95;;;18.20;59.90;;;;;;5073380;28;20220;-69
2024/01/02 04:10:39;;;;;;;1.52;1.10;;;18.20;59.80;;;;;;5090705;28;20193;-70
2024/01/02 04:13:05;;;;;;;1.27;1.17;;;18.20;59.80;;;;;;5091437;28;20224;-69
2024/01/02 04:15:31;;;;;;;1.30;1.15;;;18.20;59.80;;;;;;5073896;28;20193;-70
2024/01/02 04:17:57;;;;;;;1.20;1.10;;;18.20;59.80;;;;;;5090296;28;20666;-70
2024/01/02 04:20:22;;;;;;;2.15;1.00;;;18.20;59.80;;;;;;5090331;28;20192;-70
2024/01/02 04:22:54;;;;;;;1.00;0.90;;;18.20;59.80;;;;;;5074195;28;20342;-70
2024/01/02 04:25:23;;;;;;;1.20;1.10;;;18.20;59.80;;;;;;5096420;28;20189;-70
2024/01/02 04:27:56;;;;;;;1.70;1.00;;;18.20;59.80;;;;;;5096599;28;20225;-70
2024/01/02 04:30:22;;;;;;;2.05;1.13;;;18.20;59.70;;;;;;5073240;28;20181;-68
2024/01/02 04:32:49;;;;;;;1.60;1.23;;;18.20;60.00;;;;;;5106682;28;20207;-71
2024/01/02 04:35:15;;;;;;;1.00;0.80;;;18.20;59.80;;;;;;5084711;28;20188;-70
2024/01/02 04:37:40;;;;;;;1.40;1.10;;;18.20;59.70;;;;;;5075018;28;20192;-71
2024/01/02 04:40:10;;;;;;;2.28;1.35;;;18.20;59.70;;;;;;5089993;28;20239;-69
2024/01/02 04:42:36;;;;;;;2.03;0.95;;;18.20;59.70;;;;;;5091008;28;20208;-70
2024/01/02 04:45:04;;;;;;;1.55;1.17;;;18.20;59.70;;;;;;5099274;28;20180;-70
2024/01/02 04:47:30;;;;;;;1.70;1.27;;;18.20;59.70;;;;;;5076922;28;20221;-70
2024/01/02 04:49:57;;;;;;;1.10;0.80;;;18.20;59.70;;;;;;5093605;28;20188;-70
2024/01/02 04:52:22;;;;;;;1.70;0.90;;;18.20;59.80;;;;;;5093435;28;20242;-70
2024/01/02 04:54:48;;;;;;;2.80;1.10;;;18.20;59.80;;;;;;5093699;28;20196;-70
2024/01/02 04:57:15;;;;;;;1.25;1.10;;;18.20;59.80;;;;;;5093728;28;20192;-70
2024/01/02 04:59:41;;;;;;;1.30;0.90;;;18.20;59.80;;;;;;5117284;27;20184;-71
2024/01/02 05:02:07;;;;;;;1.20;1.10;;;18.20;59.80;;;;;;5093202;28;20238;-69
2024/01/02 05:04:33;;;;;;;1.98;1.13;;;18.20;59.80;;;;;;5094747;28;20188;-69
2024/01/02 05:06:59;;;;;;;2.08;1.33;;;18.20;59.80;;;;;;5076442;28;20304;-69
2024/01/02 05:09:26;;;;;;;1.50;0.80;;;18.20;59.80;;;;;;5100716;28;20256;-69
2024/01/02 05:11:52;;;;;;;1.30;1.10;;;18.20;59.70;;;;;;5107712;28;20211;-70
2024/01/02 05:14:18;;;;;;;1.30;1.08;;;18.20;59.70;;;;;;5089626;28;20247;-69
2024/01/02 05:16:43;;;;;;;1.48;1.00;;;18.20;59.70;;;;;;5093438;28;20189;-70
2024/01/02 05:19:09;;;;;;;1.92;1.02;;;18.20;59.70;;;;;;5093270;28;20192;-69
2024/01/02 05:21:35;;;;;;;0.88;0.88;;;18.20;59.70;;;;;;5108030;28;20210;-70
2024/01/02 05:24:01;;;;;;;1.70;1.00;;;18.20;59.70;;;;;;5080370;28;20201;-69
2024/01/02 05:26:27;;;;;;;1.30;1.20;;;18.20;59.70;;;;;;5092855;28;20208;-71
2024/01/02 05:28:53;;;;;;;0.90;0.90;;;18.20;59.70;;;;;;5076000;28;20185;-70
2024/01/02 05:31:18;;;;;;;1.08;0.98;;;18.20;59.80;;;;;;5076157;28;20192;-70
2024/01/02 05:33:44;;;;;;;1.48;1.00;;;18.20;59.80;;;;;;5090809;28;20213;-69
2024/01/02 05:36:10;;;;;;;0.93;0.82;;;18.20;59.80;;;;;;5092718;28;20184;-69
2024/01/02 05:38:36;;;;;;;1.13;0.90;;;18.20;59.70;;;;;;5088351;28;20192;-70
2024/01/02 05:41:01;;;;;;;1.35;1.10;;;18.20;59.70;;;;;;5098799;28;20196;-70
2024/01/02 05:43:27;;;;;;;1.17;1.00;;;18.20;59.70;;;;;;5076123;28;20238;-70
2024/01/02 05:45:53;;;;;;;1.10;0.98;;;18.20;59.80;;;;;;5093007;28;20192;-69
2024/01/02 05:48:18;;;;;;;1.15;0.90;;;18.20;59.70;;;;;;5086675;28;20211;-70
2024/01/02 05:50:44;;;;;;;1.27;1.10;;;18.20;59.80;;;;;;5087786;28;20176;-70
2024/01/02 05:53:10;;;;;;;1.05;0.88;;;18.20;59.80;;;;;;5075612;28;20205;-70
2024/01/02 05:55:36;;;;;;;1.10;0.80;;;18.20;59.80;;;;;;5074404;28;20189;-69
2024/01/02 05:58:02;;;;;;;0.70;0.70;;;18.20;59.80;;;;;;5090905;28;20256;-70
2024/01/02 06:00:28;;;;;;;1.20;0.80;;;18.20;59.80;;;;;;5092238;28;20200;-70
2024/01/02 06:02:53;;;;;;;1.10;1.00;;;18.20;59.80;;;;;;5093659;28;20220;-70
2024/01/02 06:05:19;;;;;;;1.13;1.02;;;18.20;59.80;;;;;;5092143;28;20197;-70
2024/01/02 06:07:45;;;;;;;0.80;0.80;;;18.20;59.80;;;;;;5092369;28;20205;-70
2024/01/02 06:10:11;;;;;;;1.10;1.02;;;18.20;59.80;;;;;;5092149;28;20239;-70
2024/01/02 06:12:37;;;;;;;1.50;0.90;;;18.20;59.80;;;;;;5092093;28;20223;-69
2024/01/02 06:15:04;;;;;;;1.35;1.10;;;18.30;59.80;;;;;;5098024;28;20185;-70
2024/01/02 06:17:31;;;;;;;0.90;0.85;;;18.20;59.80;;;;;;5093318;28;20200;-71
2024/01/02 06:19:56;;;;;;;0.95;0.82;;;18.20;59.80;;;;;;5096993;28;20254;-70
2024/01/02 06:22:22;;;;;;;0.90;0.85;;;18.20;59.80;;;;;;5097286;28;20184;-69
2024/01/02 06:24:48;;;;;;;1.67;1.00;;;18.20;59.80;;;;;;5075602;28;20199;-70
2024/01/02 06:27:14;;;;;;;0.68;0.68;;;18.20;59.80;;;;;;5097756;28;20209;-70
2024/01/02 06:29:40;;;;;;;1.10;1.00;;;18.20;59.80;;;;;;5094075;28;20634;-70
2024/01/02 06:32:07;;;;;;;1.02;0.90;;;18.20;59.80;;;;;;5096799;28;20193;-70
2024/01/02 06:34:32;;;;;;;1.15;1.05;;;18.20;59.80;;;;;;5091822;28;20189;-71
2024/01/02 06:36:58;;;;;;;0.80;0.80;;;18.30;59.90;;;;;;5096840;28;20192;-70
2024/01/02 06:39:24;;;;;;;0.77;0.77;;;18.20;59.80;;;;;;5091527;28;20269;-70
2024/01/02 06:41:49;;;;;;;1.08;0.98;;;18.20;59.80;;;;;;5080554;28;20193;-70
2024/01/02 06:44:15;;;;;;;0.68;0.60;;;18.20;60.50;;;;;;5080415;28;20208;-70
2024/01/02 06:46:41;;;;;;;1.20;1.10;;;18.20;59.90;;;;;;5074384;28;20193;-69
2024/01/02 06:49:09;;;;;;;0.70;0.70;;;18.20;59.80;;;;;;5079863;28;20549;-69
2024/01/02 06:51:35;;;;;;;0.85;0.80;;;18.20;59.90;;;;;;5077773;28;20194;-70
2024/01/02 06:54:01;;;;;;;0.80;0.80;;;18.20;59.80;;;;;;5110198;28;20205;-69
2024/01/02 06:56:27;;;;;;;0.93;0.80;;;18.20;59.80;;;;;;5095189;28;20200;-70
2024/01/02 06:58:53;;;;;;;0.80;0.80;;;18.20;59.80;;;;;;5088550;28;20193;-69
2024/01/02 07:01:19;;;;;;;0.82;0.82;;;18.20;59.90;;;;;;5074321;28;20219;-70
2024/01/02 07:03:45;;;;;;;1.23;0.80;;;18.20;59.80;;;;;;5091031;28;20225;-70
2024/01/02 07:06:11;;;;;;;1.00;0.90;;;18.30;59.90;;;;;;5091841;28;20224;-70
2024/01/02 07:08:36;;;;;;;0.70;0.70;;;18.20;59.80;;;;;;5082774;28;20213;-70
2024/01/02 07:11:03;;;;;;;1.38;0.85;;;18.20;59.80;;;;;;5089386;28;20185;-70
2024/01/02 07:13:29;;;;;;;0.90;0.90;;;18.30;59.90;;;;;;5102612;28;20219;-70
2024/01/02 07:15:56;;;;;;;0.93;0.70;;;18.20;59.80;;;;;;5096749;28;20197;-70
2024/01/02 07:18:22;;;;;;;0.82;0.80;;;18.20;59.80;;;;;;5092323;28;20210;-70
2024/01/02 07:20:47;;;;;;;0.98;0.95;;;18.20;59.80;;;;;;5073894;28;20280;-72
2024/01/02 07:23:13;;;;;;;0.80;0.70;;;18.20;59.80;;;;;;5076263;28;20258;-72
2024/01/02 07:25:39;;;;;;;0.60;0.60;;;18.30;59.90;;;;;;5074408;28;20245;-70
2024/01/02 07:28:05;;;;;;;0.73;0.70;;;18.30;59.90;;;;;;5097596;28;20217;-70
2024/01/02 07:30:31;;;;;;;0.98;0.70;;;18.20;59.90;;;;;;5090980;28;20652;-70
2024/01/02 07:32:57;;;;;;;1.27;0.70;;;18.20;59.80;;;;;;5079694;28;20205;-73
2024/01/02 07:35:23;;;;;;;0.57;0.57;;;18.20;59.80;;;;;;5091020;28;20185;-70
2024/01/02 07:37:49;;;;;;;0.73;0.73;;;18.20;59.90;;;;;;5090457;28;20218;-72
2024/01/02 07:40:15;;;;;;;0.90;0.90;;;18.30;59.90;;;;;;5073803;28;20187;-70
2024/01/02 07:42:41;;;;;;;0.70;0.70;;;18.20;59.90;;;;;;5090489;28;20215;-70
2024/01/02 07:45:08;;;;;;;0.60;0.60;;;18.30;59.90;;;;;;5079934;28;20197;-71
2024/01/02 07:47:34;;;;;;;0.98;0.70;;;18.20;59.90;;;;;;5079336;28;20204;-71
2024/01/02 07:50:01;;;;;;;0.80;0.80;;;18.20;59.90;;;;;;5111362;28;20178;-71
2024/01/02 07:52:26;;;;;;;0.80;0.80;;;18.30;59.90;;;;;;5084141;28;20205;-71
2024/01/02 07:54:52;;;;;;;0.70;0.70;;;18.30;59.90;;;;;;5084592;28;20195;-71
2024/01/02 07:57:18;;;;;;;0.70;0.70;;;18.30;60.00;;;;;;5095956;28;20195;-71
2024/01/02 07:59:44;;;;;;;0.60;0.60;;;18.20;59.90;;;;;;5090565;28;20200;-71
2024/01/02 08:02:09;;;;;;;1.52;0.60;;;18.30;59.90;;;;;;5098809;28;20218;-69
2024/01/02 08:04:35;;;;;;;0.57;0.57;;;18.30;60.00;;;;;;5073936;28;20605;-70
2024/01/02 08:07:01;;;;;;;0.70;0.70;;;18.30;59.90;;;;;;5096540;28;20342;-71
2024/01/02 08:09:27;;;;;;;1.10;0.82;;;18.30;59.90;;;;;;5090276;28;20557;-70
2024/01/02 08:11:53;;;;;;;0.80;0.65;;;18.30;60.00;;;;;;5087526;28;20192;-71
2024/01/02 08:14:19;;;;;;;0.57;0.57;;;18.30;60.00;;;;;;5095553;28;20587;-71
2024/01/02 08:16:45;;;;;;;0.90;0.80;;;18.30;60.00;;;;;;5083865;28;20184;-71
2024/01/02 08:19:11;;;;;;;0.60;0.60;;;18.20;59.90;;;;;;5098684;28;20184;-72
2024/01/02 08:21:36;;;;;;;0.60;0.60;;;18.30;60.00;;;;;;5079645;28;20196;-71
2024/01/02 08:24:03;;;;;;;0.60;0.60;;;18.30;60.00;;;;;;5073805;28;20205;-71
2024/01/02 08:26:28;;;;;;;0.70;0.70;;;18.30;60.00;;;;;;5082824;28;20554;-71
2024/01/02 08:28:54;;;;;;;0.70;0.70;;;18.30;60.00;;;;;;5098690;28;20214;-71
2024/01/02 08:31:20;;;;;;;0.85;0.60;;;18.30;60.00;;;;;;5098079;28;20176;-71
2024/01/02 08:33:45;;;;;;;0.70;0.70;;;18.30;59.90;;;;;;5111440;27;20221;-73
2024/01/02 08:36:11;;;;;;;0.60;0.60;;;18.30;60.00;;;;;;5082119;28;20185;-70
2024/01/02 08:38:40;;;;;;;0.60;0.60;;;18.30;60.00;;;;;;5089186;28;20194;-70
2024/01/02 08:41:07;;;;;;;0.60;0.60;;;18.30;60.00;;;;;;5078157;28;20189;-72
2024/01/02 08:43:33;;;;;;;0.60;0.60;;;18.30;60.00;;;;;;5093769;28;20212;-71
2024/01/02 08:45:59;;;;;;;0.60;0.60;;;18.30;60.00;;;;;;5083594;28;20694;-71
2024/01/02 08:48:25;;;;;;;0.60;0.60;;;18.30;60.00;;;;;;5080911;28;20232;-71
2024/01/02 08:50:51;;;;;;;0.60;0.60;;;18.30;60.00;;;;;;5093602;28;20610;-71
2024/01/02 08:53:16;;;;;;;0.60;0.60;;;18.30;60.00;;;;;;5076961;28;20207;-70
2024/01/02 08:55:42;;;;;;;0.50;0.50;;;18.30;60.00;;;;;;5099060;28;20214;-70
2024/01/02 08:58:08;;;;;;;0.52;0.52;;;18.30;60.00;;;;;;5104388;28;20212;-71
2024/01/02 09:00:34;;;;;;;0.60;0.60;;;18.30;60.00;;;;;;5096131;28;20189;-71
2024/01/02 09:03:02;;;;;;;0.60;0.60;;;18.30;60.10;;;;;;5113379;27;20217;-72
2024/01/02 09:05:28;;;;;;;0.40;0.40;;;18.30;60.00;;;;;;5088732;28;20273;-71
2024/01/02 09:07:55;;;;;;;0.50;0.50;;;18.30;60.00;;;;;;5092583;28;20271;-72
2024/01/02 09:10:23;;;;;;;0.60;0.60;;;18.30;60.00;;;;;;5113719;27;20184;-72
2024/01/02 09:12:49;;;;;;;0.60;0.60;;;18.30;60.10;;;;;;5078507;28;20210;-71
2024/01/02 09:15:15;;;;;;;0.60;0.60;;;18.30;60.00;;;;;;5076171;28;20188;-71
2024/01/02 09:17:41;;;;;;;0.47;0.47;;;18.30;60.10;;;;;;5098283;28;20189;-71
2024/01/02 09:20:08;;;;;;;0.68;0.68;;;18.30;60.10;;;;;;5083397;28;20208;-70
2024/01/02 09:22:34;;;;;;;0.40;0.40;;;18.30;60.10;;;;;;5110125;28;20224;-69
2024/01/02 09:25:00;;;;;;;0.68;0.68;;;18.40;60.20;;;;;;5084315;28;20189;-68
2024/01/02 09:27:29;;;;;;;0.75;0.70;;;18.30;60.10;;;;;;5092615;28;20212;-72
2024/01/02 09:29:58;;;;;;;0.73;0.50;;;18.30;60.10;;;;;;5073765;28;20185;-72
2024/01/02 09:32:25;;;;;;;0.47;0.40;;;18.30;60.10;;;;;;5074826;28;20272;-71
2024/01/02 09:34:52;;;;;;;1.05;0.60;;;18.30;60.10;;;;;;5076488;28;20189;-71
2024/01/02 09:37:18;;;;;;;0.70;0.70;;;18.30;60.10;;;;;;5090315;28;20189;-74
2024/01/02 09:39:44;;;;;;;0.60;0.60;;;18.30;60.10;;;;;;5093546;28;20246;-72
2024/01/02 09:42:37;;;;;;;0.63;0.63;;;18.30;60.20;;;;;;5092600;28;20189;-71
2024/01/02 09:45:29;;;;;;;0.45;0.45;;;18.30;60.20;;;;;;5087353;28;20200;-72
2024/01/02 09:48:31;;;;;;;0.60;0.60;;;18.40;60.30;;;;;;5090553;28;20205;-71
2024/01/02 09:51:31;;;;;;;0.45;0.43;;;18.40;60.30;;;;;;5089413;28;20196;-73
2024/01/02 09:54:18;;;;;;;0.55;0.50;;;18.30;60.20;;;;;;5089352;28;20217;-71
2024/01/02 09:57:52;;;;;;;0.93;0.50;;;18.40;60.30;;;;;;5075911;28;20573;-71
2024/01/02 10:00:20;;;;;;;0.40;0.40;;;18.30;60.20;;;;;;5062663;28;20248;-70
2024/01/02 10:03:17;;;;;;;1.23;0.60;;;18.40;60.40;;;;;;5097976;28;20697;-71
2024/01/02 10:06:02;;;;;;;0.57;0.40;;;18.30;60.20;;;;;;5092126;28;20200;-71
2024/01/02 10:08:49;;;;;;;0.63;0.63;;;18.30;60.20;;;;;;5105546;28;20207;-72
2024/01/02 10:11:47;;;;;;;0.50;0.50;;;18.40;60.40;;;;;;5094901;28;20206;-71
2024/01/02 10:14:33;;;;;;;1.02;0.40;;;18.30;60.20;;;;;;5091079;28;20245;-71
2024/01/02 10:17:21;;;;;;;0.63;0.63;;;18.40;60.30;;;;;;5095783;28;20185;-71
2024/01/02 10:20:24;;;;;;;0.80;0.70;;;18.40;60.40;;;;;;5092852;28;20184;-71
2024/01/02 10:23:06;;;;;;;0.98;0.88;;;18.40;60.40;;;;;;5100378;28;20216;-73
2024/01/02 10:25:33;;;;;;;2.78;0.80;;;18.40;60.30;;;;;;5093700;28;20185;-72
2024/01/02 10:28:06;;;;;;;1.13;0.80;;;18.40;60.40;;;;;;5098961;28;20224;-72
2024/01/02 10:30:55;;;;;;;1.70;1.13;;;18.40;60.40;;;;;;5092352;28;20281;-71
2024/01/02 10:33:51;;;;;;;1.17;1.00;;;18.40;60.40;;;;;;5088970;28;20207;-72
2024/01/02 10:36:22;;;;;;;2.30;1.38;;;18.40;60.40;;;;;;5093851;28;20184;-72
2024/01/02 10:39:07;;;;;;;1.20;1.02;;;18.40;60.40;;;;;;5091803;28;20219;-71
2024/01/02 10:42:15;;;;;;;2.83;1.35;;;18.40;60.40;;;;;;5096545;28;20196;-71
2024/01/02 10:45:25;;;;;;;1.70;1.30;;;18.40;60.50;;;;;;5077292;28;20687;-71
2024/01/02 10:48:14;;;;;;;1.58;1.45;;;18.30;60.40;;;;;;5088797;28;20300;-71
2024/01/02 10:51:10;;;;;;;2.33;1.63;;;18.40;60.50;;;;;;5097759;28;20194;-71
2024/01/02 10:53:57;;;;;;;2.65;1.67;;;18.40;60.50;;;;;;5089217;28;20216;-71
2024/01/02 10:56:29;;;;;;;1.52;1.38;;;18.40;60.50;;;;;;5074728;28;20204;-70
2024/01/02 10:59:03;;;;;;;2.17;1.60;;;18.40;60.60;;;;;;5088156;28;20189;-72
2024/01/02 11:01:34;;;;;;;3.28;2.10;;;18.40;60.60;;;;;;5091444;28;20181;-72
2024/01/02 11:04:41;;;;;;;2.58;1.70;;;18.40;60.60;;;;;;5092162;28;20212;-72
2024/01/02 11:07:09;;;;;;;2.92;1.90;;;18.40;60.50;;;;;;5081266;28;20220;-72
2024/01/02 11:10:01;;;;;;;2.28;1.77;;;18.40;60.50;;;;;;5079644;28;20169;-72
2024/01/02 11:12:40;;;;;;;3.38;1.48;;;18.40;60.60;;;;;;5089406;28;20230;-71
2024/01/02 11:15:11;;;;;;;3.03;1.75;;;18.40;60.60;;;;;;5108329;28;20192;-70
2024/01/02 11:17:41;;;;;;;3.10;2.00;;;18.40;60.60;;;;;;5097896;28;20188;-69
2024/01/02 11:20:14;;;;;;;2.72;1.77;;;18.40;60.70;;;;;;5078902;28;20194;-71
2024/01/02 11:23:01;;;;;;;3.42;2.25;;;18.40;60.60;;;;;;5093432;28;20215;-71
2024/01/02 11:25:31;;;;;;;2.22;1.80;;;18.40;60.60;;;;;;5087850;28;20208;-70
2024/01/02 11:28:02;;;;;;;3.72;2.10;;;18.40;60.60;;;;;;5096841;28;20713;-71
2024/01/02 11:30:36;;;;;;;3.50;2.15;;;18.40;60.60;;;;;;5094406;28;20216;-71
2024/01/02 11:33:21;;;;;;;3.63;2.22;;;18.40;60.60;;;;;;5094581;28;20212;-73
2024/01/02 11:36:13;;;;;;;2.40;1.73;;;18.40;60.70;;;;;;5095467;28;20223;-71
2024/01/02 11:39:07;;;;;;;2.95;1.95;;;18.40;61.40;;;;;;5063109;28;20192;-72
2024/01/02 11:41:41;;;;;;;2.85;2.00;;;18.40;60.60;;;;;;5093837;28;20264;-72
2024/01/02 11:44:39;;;;;;;3.80;2.45;;;18.40;60.70;;;;;;5080154;28;20300;-71
2024/01/02 11:47:34;;;;;;;4.32;1.90;;;18.40;60.60;;;;;;5088826;28;20248;-72
2024/01/02 11:50:04;;;;;;;3.42;2.30;;;18.50;60.70;;;;;;5089337;28;20196;-73
2024/01/02 11:52:39;;;;;;;2.33;1.90;;;18.50;60.80;;;;;;5081979;28;20213;-71
2024/01/02 11:55:33;;;;;;;2.67;2.10;;;18.50;60.70;;;;;;5096093;28;20188;-72
2024/01/02 11:58:11;;;;;;;3.38;2.10;;;18.50;60.70;;;;;;5097656;28;20237;-70
2024/01/02 12:00:56;;;;;;;3.42;2.38;;;18.50;60.80;;;;;;5075580;28;20273;-70
2024/01/02 12:04:12;;;;;;;2.95;2.13;;;18.50;60.70;;;;;;5089746;28;20201;-71
2024/01/02 12:06:50;;;;;;;6.00;2.67;;;18.50;60.80;;;;;;5077658;28;20197;-70
2024/01/02 12:09:19;;;;;;;3.67;2.58;;;18.50;60.80;;;;;;5096036;28;20196;-70
2024/01/02 12:12:43;;;;;;;3.92;2.53;;;18.50;61.10;;;;;;5090888;28;20246;-70
2024/01/02 12:15:32;;;;;;;2.47;2.22;;;18.50;61.10;;;;;;5071248;28;20197;-69
2024/01/02 12:18:06;;;;;;;3.13;2.35;;;18.50;61.00;;;;;;5095775;28;20188;-71
2024/01/02 12:21:02;;;;;;;4.25;2.45;;;18.50;61.00;;;;;;5091370;28;20203;-71
2024/01/02 12:23:32;;;;;;;2.83;2.30;;;18.50;61.00;;;;;;5095101;28;20238;-71
2024/01/02 12:26:05;;;;;;;4.28;2.75;;;18.50;61.00;;;;;;5094899;28;20189;-71
2024/01/02 12:28:36;;;;;;;6.13;2.70;;;18.50;61.10;;;;;;5107949;28;20212;-72
2024/01/02 12:31:34;;;;;;;5.18;2.58;;;18.50;61.00;;;;;;5101641;28;20189;-72
2024/01/02 12:34:22;;;;;;;3.80;2.40;;;18.50;61.00;;;;;;5105423;28;20212;-70
2024/01/02 12:37:08;;;;;;;3.97;2.55;;;18.40;61.00;;;;;;5073492;28;20256;-70
2024/01/02 12:39:39;;;;;;;8.57;4.05;;;18.50;61.20;;;;;;5071120;28;20252;-70
2024/01/02 12:42:13;;;;;;;5.68;3.42;;;18.50;62.20;;;;;;5098884;28;20538;-70
2024/01/02 12:44:44;;;;;;;5.25;3.00;;;18.50;62.10;;;;;;5072870;28;20181;-70
2024/01/02 12:47:13;;;;;;;3.60;2.63;;;18.50;62.20;;;;;;5092217;28;20256;-70
2024/01/02 12:50:04;;;;;;;5.03;2.83;;;18.50;62.10;;;;;;5090007;28;20264;-70
2024/01/02 12:52:42;;;;;;;6.20;2.85;;;18.60;62.10;;;;;;5098079;28;20213;-71
2024/01/02 12:55:11;;;;;;;3.65;2.58;;;18.50;61.90;;;;;;5090329;28;20185;-71
2024/01/02 12:57:38;;;;;;;4.90;2.70;;;18.50;62.00;;;;;;5093936;28;20192;-70
2024/01/02 13:00:07;;;;;;;4.53;2.70;;;18.50;61.90;;;;;;5099338;28;20189;-71
2024/01/02 13:02:36;;;;;;;6.85;2.80;;;18.50;61.80;;;;;;5073418;28;20288;-71
2024/01/02 13:05:07;;;;;;;4.82;3.10;;;18.50;61.80;;;;;;5091087;28;20202;-71